This is the latest recevied weather packets stored in our database for station/object AE0NK. If no packets are shown the sender has not sent any weather packets the latest 10 day(s).
| Time | Temp. | Humidity | Pressure | Rain* | Wind** | Luminosity | Snow |
|---|---|---|---|---|---|---|---|
| 1777981105 | 8.33° C | 54% | 1011 hPa | 0 mm | - | 37 W/m² | - |
| 1777980802 | 8.33° C | 53% | 1010.8 hPa | 0 mm | - | 23 W/m² | - |
| 1777980499 | 8.33° C | 53% | 1010.6 hPa | 0 mm | - | 14 W/m² | - |
| 1777980196 | 8.33° C | 52% | 1010.5 hPa | 0 mm | - | 12 W/m² | - |
| 1777979911 | 8.89° C | 51% | 1010.3 hPa | 0 mm | - | 12 W/m² | - |
| 1777979608 | 8.89° C | 51% | 1010.1 hPa | 0 mm | - | 7 W/m² | - |
| 1777979305 | 8.89° C | 49% | 1010 hPa | 0 mm | - | 0 W/m² | - |
| 1777979002 | 8.89° C | 50% | 1010 hPa | 0 mm | - | 0 W/m² | - |
| 1777978697 | 8.89° C | 52% | 1009.5 hPa | 0 mm | - | 0 W/m² | - |
| 1777978395 | 8.89° C | 50% | 1010.1 hPa | 0 mm | - | 0 W/m² | - |
| 1777978093 | 8.89° C | 53% | 1009.4 hPa | 0 mm | - | 0 W/m² | - |
| 1777977806 | 8.89° C | 49% | 1009.8 hPa | 0 mm | - | 0 W/m² | - |
| 1777977502 | 8.89° C | 50% | 1009.7 hPa | 0 mm | - | 0 W/m² | - |
| 1777977200 | 8.89° C | 51% | 1008.8 hPa | 0 mm | - | 0 W/m² | - |
| 1777976898 | 8.89° C | 52% | 1009 hPa | 0 mm | - | 0 W/m² | - |
| 1777976596 | 8.89° C | 49% | 1009.1 hPa | 0 mm | - | 0 W/m² | - |
| 1777976295 | 8.89° C | 49% | 1008.7 hPa | 0 mm | - | 0 W/m² | - |
| 1777975994 | 9.44° C | 53% | 1008.2 hPa | 0 mm | - | 0 W/m² | - |
| 1777975691 | 9.44° C | 49% | 1009.2 hPa | 0 mm | - | 0 W/m² | - |
| 1777975410 | 9.44° C | 49% | 1008.9 hPa | 0 mm | - | 0 W/m² | - |
| 1777975105 | 9.44° C | 50% | 1007.2 hPa | 0 mm | - | 0 W/m² | - |
| 1777974803 | 9.44° C | 52% | 1007.8 hPa | 0 mm | - | 0 W/m² | - |
| 1777974501 | 9.44° C | 51% | 1008.4 hPa | 0 mm | - | 0 W/m² | - |
| 1777974200 | 9.44° C | 51% | 1008.6 hPa | 0 mm | - | 0 W/m² | - |
| 1777973895 | 9.44° C | 50% | 1009.2 hPa | 0 mm | - | 0 W/m² | - |
* Rain latest hour (hover to see other rain measurements)
** Current wind speed in m/s (hover to see current wind gust speed)